DNAA/ABV METAR and TAF weather

Enter ICAO airport designator
Station Type Date Time Source
DNAA METAR 2023/01/30 11:00 UTC NOAA

DNAA 301100Z 21005KT CAVOK 35/07 Q1011 NOSIG


Station Type Date Time Source
DNAA Decoded METAR 2023/01/30 11:00 UTC NOAA

Station name not available
Jan 30, 2023 - 06:00 AM EST / 2023.01.30 1100 UTC
Wind: from the SSW (210 degrees) at 6 MPH (5 KT):0
Visibility: greater than 7 mile(s):0
Temperature: 95 F (35 C)
Dew Point: 44 F (7 C)
Relative Humidity: 17%
Pressure (altimeter): 29.85 in. Hg (1011 hPa)
ob: DNAA 301100Z 21005KT CAVOK 35/07 Q1011 NOSIG
cycle: 11

Station Type Date Time Source
DNAA TAF 2023/01/29 18:27 UTC NOAA

TAF TAF DNAA 291700Z 2918/3024 26007KT CAVOK PROB30
TEMPO 2918/2922 TS FEW020CB
BECMG 2922/2924 VRB02KT

Example: see airport list